sensor_id;sensor_type;location;lat;lon;timestamp;temperature;humidity
13462;DHT22;6803;45.264;5.468;2023-02-28T00:00:44;1.70;99.90
13462;DHT22;6803;45.264;5.468;2023-02-28T00:03:15;1.70;99.90
13462;DHT22;6803;45.264;5.468;2023-02-28T00:05:46;1.70;99.90
13462;DHT22;6803;45.264;5.468;2023-02-28T00:08:17;1.70;99.90
13462;DHT22;6803;45.264;5.468;2023-02-28T00:10:48;1.60;99.90
13462;DHT22;6803;45.264;5.468;2023-02-28T00:13:19;1.70;99.90
13462;DHT22;6803;45.264;5.468;2023-02-28T00:16:01;1.60;99.90
13462;DHT22;6803;45.264;5.468;2023-02-28T00:18:32;1.60;99.90
13462;DHT22;6803;45.264;5.468;2023-02-28T00:21:04;1.60;99.90
13462;DHT22;6803;45.264;5.468;2023-02-28T00:23:36;1.60;99.90
13462;DHT22;6803;45.264;5.468;2023-02-28T00:26:08;1.70;99.90
13462;DHT22;6803;45.264;5.468;2023-02-28T00:28:39;1.70;99.90
13462;DHT22;6803;45.264;5.468;2023-02-28T00:31:10;1.70;99.90
13462;DHT22;6803;45.264;5.468;2023-02-28T00:33:41;1.70;99.90
13462;DHT22;6803;45.264;5.468;2023-02-28T00:36:12;1.70;99.90
13462;DHT22;6803;45.264;5.468;2023-02-28T00:38:43;1.70;99.90
13462;DHT22;6803;45.264;5.468;2023-02-28T00:41:14;1.70;99.90
13462;DHT22;6803;45.264;5.468;2023-02-28T00:43:46;1.70;99.90
13462;DHT22;6803;45.264;5.468;2023-02-28T00:46:17;1.60;99.90
13462;DHT22;6803;45.264;5.468;2023-02-28T00:48:48;1.60;99.90
13462;DHT22;6803;45.264;5.468;2023-02-28T00:51:19;1.60;99.90
13462;DHT22;6803;45.264;5.468;2023-02-28T00:53:50;1.50;99.90
13462;DHT22;6803;45.264;5.468;2023-02-28T00:56:21;1.50;99.90
13462;DHT22;6803;45.264;5.468;2023-02-28T00:58:53;1.50;99.90
13462;DHT22;6803;45.264;5.468;2023-02-28T01:01:24;1.60;99.90
13462;DHT22;6803;45.264;5.468;2023-02-28T01:03:55;1.50;99.90
13462;DHT22;6803;45.264;5.468;2023-02-28T01:06:27;1.50;99.90
13462;DHT22;6803;45.264;5.468;2023-02-28T01:08:58;1.40;99.90
13462;DHT22;6803;45.264;5.468;2023-02-28T01:11:29;1.40;99.90
13462;DHT22;6803;45.264;5.468;2023-02-28T01:14:00;1.40;99.90
13462;DHT22;6803;45.264;5.468;2023-02-28T01:16:32;1.50;99.90
13462;DHT22;6803;45.264;5.468;2023-02-28T01:19:04;1.40;99.90
13462;DHT22;6803;45.264;5.468;2023-02-28T01:21:35;1.30;99.90
13462;DHT22;6803;45.264;5.468;2023-02-28T01:24:07;1.30;99.90
13462;DHT22;6803;45.264;5.468;2023-02-28T01:26:38;1.40;99.90
13462;DHT22;6803;45.264;5.468;2023-02-28T01:29:09;1.40;99.90
13462;DHT22;6803;45.264;5.468;2023-02-28T01:31:40;1.40;99.90
13462;DHT22;6803;45.264;5.468;2023-02-28T01:34:11;1.40;99.90
13462;DHT22;6803;45.264;5.468;2023-02-28T01:36:42;1.40;99.90
13462;DHT22;6803;45.264;5.468;2023-02-28T01:39:14;1.30;99.90
13462;DHT22;6803;45.264;5.468;2023-02-28T01:41:44;1.30;99.90
13462;DHT22;6803;45.264;5.468;2023-02-28T01:44:57;1.30;99.90
13462;DHT22;6803;45.264;5.468;2023-02-28T01:47:47;1.30;99.90
13462;DHT22;6803;45.264;5.468;2023-02-28T01:50:20;1.30;99.90
13462;DHT22;6803;45.264;5.468;2023-02-28T01:52:54;1.40;99.90
13462;DHT22;6803;45.264;5.468;2023-02-28T01:55:27;1.40;99.90
13462;DHT22;6803;45.264;5.468;2023-02-28T01:58:00;1.30;99.90
13462;DHT22;6803;45.264;5.468;2023-02-28T02:00:32;1.40;99.90
13462;DHT22;6803;45.264;5.468;2023-02-28T02:03:09;1.40;99.90
13462;DHT22;6803;45.264;5.468;2023-02-28T02:05:39;1.40;99.90
13462;DHT22;6803;45.264;5.468;2023-02-28T02:08:12;1.30;99.90
13462;DHT22;6803;45.264;5.468;2023-02-28T02:10:45;1.30;99.90
13462;DHT22;6803;45.264;5.468;2023-02-28T02:13:34;1.20;99.90
13462;DHT22;6803;45.264;5.468;2023-02-28T02:16:11;1.20;99.90
13462;DHT22;6803;45.264;5.468;2023-02-28T02:18:46;1.20;99.90
13462;DHT22;6803;45.264;5.468;2023-02-28T02:21:40;1.10;99.90
13462;DHT22;6803;45.264;5.468;2023-02-28T02:27:45;1.00;99.90
13462;DHT22;6803;45.264;5.468;2023-02-28T02:30:27;0.90;99.90
13462;DHT22;6803;45.264;5.468;2023-02-28T02:36:01;0.90;99.90
13462;DHT22;6803;45.264;5.468;2023-02-28T02:38:36;0.90;99.90
13462;DHT22;6803;45.264;5.468;2023-02-28T02:41:11;0.90;99.90
13462;DHT22;6803;45.264;5.468;2023-02-28T02:43:44;0.90;99.90
13462;DHT22;6803;45.264;5.468;2023-02-28T02:46:20;0.80;99.90
13462;DHT22;6803;45.264;5.468;2023-02-28T02:48:53;0.80;99.90
13462;DHT22;6803;45.264;5.468;2023-02-28T02:51:26;0.80;99.90
13462;DHT22;6803;45.264;5.468;2023-02-28T02:54:18;0.80;99.90
13462;DHT22;6803;45.264;5.468;2023-02-28T02:57:10;0.70;99.90
13462;DHT22;6803;45.264;5.468;2023-02-28T02:59:42;0.70;99.90
13462;DHT22;6803;45.264;5.468;2023-02-28T03:02:14;0.70;99.90
13462;DHT22;6803;45.264;5.468;2023-02-28T03:04:50;0.70;99.90
13462;DHT22;6803;45.264;5.468;2023-02-28T03:07:22;0.70;99.90
13462;DHT22;6803;45.264;5.468;2023-02-28T03:09:55;0.70;99.90
13462;DHT22;6803;45.264;5.468;2023-02-28T03:12:32;0.60;99.90
13462;DHT22;6803;45.264;5.468;2023-02-28T03:15:07;0.60;99.90
13462;DHT22;6803;45.264;5.468;2023-02-28T03:17:52;0.60;99.90
13462;DHT22;6803;45.264;5.468;2023-02-28T03:20:30;0.50;99.90
13462;DHT22;6803;45.264;5.468;2023-02-28T03:23:07;0.50;99.90
13462;DHT22;6803;45.264;5.468;2023-02-28T03:25:43;0.50;99.90
13462;DHT22;6803;45.264;5.468;2023-02-28T03:28:17;0.50;99.90
13462;DHT22;6803;45.264;5.468;2023-02-28T03:30:52;0.50;99.90
13462;DHT22;6803;45.264;5.468;2023-02-28T03:33:26;0.50;99.90
13462;DHT22;6803;45.264;5.468;2023-02-28T03:36:00;0.50;99.90
13462;DHT22;6803;45.264;5.468;2023-02-28T03:38:34;0.50;99.90
13462;DHT22;6803;45.264;5.468;2023-02-28T03:41:09;0.40;99.90
13462;DHT22;6803;45.264;5.468;2023-02-28T03:43:43;0.30;99.90
13462;DHT22;6803;45.264;5.468;2023-02-28T03:46:16;0.40;99.90
13462;DHT22;6803;45.264;5.468;2023-02-28T03:48:52;0.40;99.90
13462;DHT22;6803;45.264;5.468;2023-02-28T03:51:25;0.40;99.90
13462;DHT22;6803;45.264;5.468;2023-02-28T03:56:52;0.30;99.90
13462;DHT22;6803;45.264;5.468;2023-02-28T03:59:26;0.40;99.90
13462;DHT22;6803;45.264;5.468;2023-02-28T04:01:58;0.40;99.90
13462;DHT22;6803;45.264;5.468;2023-02-28T04:04:30;0.50;99.90
13462;DHT22;6803;45.264;5.468;2023-02-28T04:07:06;0.50;99.90
13462;DHT22;6803;45.264;5.468;2023-02-28T04:09:38;0.60;99.90
13462;DHT22;6803;45.264;5.468;2023-02-28T04:12:09;0.50;99.90
13462;DHT22;6803;45.264;5.468;2023-02-28T04:14:41;0.50;99.90
13462;DHT22;6803;45.264;5.468;2023-02-28T04:17:12;0.50;99.90
13462;DHT22;6803;45.264;5.468;2023-02-28T04:19:43;0.50;99.90
13462;DHT22;6803;45.264;5.468;2023-02-28T04:22:14;0.50;99.90
13462;DHT22;6803;45.264;5.468;2023-02-28T04:24:47;0.50;99.90
13462;DHT22;6803;45.264;5.468;2023-02-28T04:27:18;0.50;99.90
13462;DHT22;6803;45.264;5.468;2023-02-28T04:29:49;0.50;99.90
13462;DHT22;6803;45.264;5.468;2023-02-28T04:32:20;0.60;99.90
13462;DHT22;6803;45.264;5.468;2023-02-28T04:34:51;0.60;99.90
13462;DHT22;6803;45.264;5.468;2023-02-28T04:37:22;0.70;99.90
13462;DHT22;6803;45.264;5.468;2023-02-28T04:39:55;0.60;99.90
13462;DHT22;6803;45.264;5.468;2023-02-28T04:42:26;0.60;99.90
13462;DHT22;6803;45.264;5.468;2023-02-28T04:44:59;0.60;99.90
13462;DHT22;6803;45.264;5.468;2023-02-28T04:47:31;0.60;99.90
13462;DHT22;6803;45.264;5.468;2023-02-28T04:50:02;0.50;99.90
13462;DHT22;6803;45.264;5.468;2023-02-28T04:52:34;0.50;99.90
13462;DHT22;6803;45.264;5.468;2023-02-28T04:55:07;0.60;99.90
13462;DHT22;6803;45.264;5.468;2023-02-28T04:57:38;0.60;99.90
13462;DHT22;6803;45.264;5.468;2023-02-28T05:00:12;0.60;99.90
13462;DHT22;6803;45.264;5.468;2023-02-28T05:02:45;0.60;99.90
13462;DHT22;6803;45.264;5.468;2023-02-28T05:05:16;0.60;99.90
13462;DHT22;6803;45.264;5.468;2023-02-28T05:07:48;0.60;99.90
13462;DHT22;6803;45.264;5.468;2023-02-28T05:10:20;0.70;99.90
13462;DHT22;6803;45.264;5.468;2023-02-28T05:12:51;0.70;99.90
13462;DHT22;6803;45.264;5.468;2023-02-28T05:15:22;0.70;99.90
13462;DHT22;6803;45.264;5.468;2023-02-28T05:17:53;0.70;99.90
13462;DHT22;6803;45.264;5.468;2023-02-28T05:20:24;0.70;99.90
13462;DHT22;6803;45.264;5.468;2023-02-28T05:22:55;0.80;99.90
13462;DHT22;6803;45.264;5.468;2023-02-28T05:25:28;0.80;99.90
13462;DHT22;6803;45.264;5.468;2023-02-28T05:27:59;0.80;99.90
13462;DHT22;6803;45.264;5.468;2023-02-28T05:30:30;0.80;99.90
13462;DHT22;6803;45.264;5.468;2023-02-28T05:33:02;0.80;99.90
13462;DHT22;6803;45.264;5.468;2023-02-28T05:35:33;0.90;99.90
13462;DHT22;6803;45.264;5.468;2023-02-28T05:38:04;0.90;99.90
13462;DHT22;6803;45.264;5.468;2023-02-28T05:40:35;0.80;99.90
13462;DHT22;6803;45.264;5.468;2023-02-28T05:43:11;0.70;99.90
13462;DHT22;6803;45.264;5.468;2023-02-28T05:45:42;0.70;99.90
13462;DHT22;6803;45.264;5.468;2023-02-28T05:48:13;0.70;99.90
13462;DHT22;6803;45.264;5.468;2023-02-28T05:50:44;0.80;99.90
13462;DHT22;6803;45.264;5.468;2023-02-28T05:53:25;0.80;99.90
13462;DHT22;6803;45.264;5.468;2023-02-28T05:56:00;0.80;99.90
13462;DHT22;6803;45.264;5.468;2023-02-28T05:58:34;0.80;99.90
13462;DHT22;6803;45.264;5.468;2023-02-28T06:01:30;0.80;99.90
13462;DHT22;6803;45.264;5.468;2023-02-28T06:03:59;0.90;99.90
13462;DHT22;6803;45.264;5.468;2023-02-28T06:06:30;0.80;99.90
13462;DHT22;6803;45.264;5.468;2023-02-28T06:09:05;0.70;99.90
13462;DHT22;6803;45.264;5.468;2023-02-28T06:11:36;0.70;99.90
13462;DHT22;6803;45.264;5.468;2023-02-28T06:14:10;0.70;99.90
13462;DHT22;6803;45.264;5.468;2023-02-28T06:16:42;0.60;99.90
13462;DHT22;6803;45.264;5.468;2023-02-28T06:19:13;0.60;99.90
13462;DHT22;6803;45.264;5.468;2023-02-28T06:21:45;0.60;99.90
13462;DHT22;6803;45.264;5.468;2023-02-28T06:24:17;0.60;99.90
13462;DHT22;6803;45.264;5.468;2023-02-28T06:26:49;0.60;99.90
13462;DHT22;6803;45.264;5.468;2023-02-28T06:29:20;0.60;99.90
13462;DHT22;6803;45.264;5.468;2023-02-28T06:31:50;0.60;99.90
13462;DHT22;6803;45.264;5.468;2023-02-28T06:34:21;0.70;99.90
13462;DHT22;6803;45.264;5.468;2023-02-28T06:36:53;0.70;99.90
13462;DHT22;6803;45.264;5.468;2023-02-28T06:39:24;0.60;99.90
13462;DHT22;6803;45.264;5.468;2023-02-28T06:41:54;0.60;99.90
13462;DHT22;6803;45.264;5.468;2023-02-28T06:44:26;0.70;99.90
13462;DHT22;6803;45.264;5.468;2023-02-28T06:46:58;0.70;99.90
13462;DHT22;6803;45.264;5.468;2023-02-28T06:49:29;0.60;99.90
13462;DHT22;6803;45.264;5.468;2023-02-28T06:52:00;0.60;99.90
13462;DHT22;6803;45.264;5.468;2023-02-28T06:54:32;0.60;99.90
13462;DHT22;6803;45.264;5.468;2023-02-28T06:57:03;0.60;99.90
13462;DHT22;6803;45.264;5.468;2023-02-28T06:59:34;0.80;99.90
13462;DHT22;6803;45.264;5.468;2023-02-28T07:02:05;0.90;99.90
13462;DHT22;6803;45.264;5.468;2023-02-28T07:04:37;0.90;99.90
13462;DHT22;6803;45.264;5.468;2023-02-28T07:07:10;0.90;99.90
13462;DHT22;6803;45.264;5.468;2023-02-28T07:09:41;1.00;99.90
13462;DHT22;6803;45.264;5.468;2023-02-28T07:12:12;0.90;99.90
13462;DHT22;6803;45.264;5.468;2023-02-28T07:14:43;1.00;99.90
13462;DHT22;6803;45.264;5.468;2023-02-28T07:17:14;1.10;99.90
13462;DHT22;6803;45.264;5.468;2023-02-28T07:19:45;1.00;99.90
13462;DHT22;6803;45.264;5.468;2023-02-28T07:22:16;1.20;99.90
13462;DHT22;6803;45.264;5.468;2023-02-28T07:24:47;1.40;99.90
13462;DHT22;6803;45.264;5.468;2023-02-28T07:27:19;1.40;99.90
13462;DHT22;6803;45.264;5.468;2023-02-28T07:29:55;1.40;99.90
13462;DHT22;6803;45.264;5.468;2023-02-28T07:32:26;1.50;99.90
13462;DHT22;6803;45.264;5.468;2023-02-28T07:34:57;1.50;99.90
13462;DHT22;6803;45.264;5.468;2023-02-28T07:37:28;1.50;99.90
13462;DHT22;6803;45.264;5.468;2023-02-28T07:40:01;1.50;99.90
13462;DHT22;6803;45.264;5.468;2023-02-28T07:42:34;1.60;99.90
13462;DHT22;6803;45.264;5.468;2023-02-28T07:45:07;1.60;99.90
13462;DHT22;6803;45.264;5.468;2023-02-28T07:47:40;1.60;99.90
13462;DHT22;6803;45.264;5.468;2023-02-28T07:50:14;1.60;99.90
13462;DHT22;6803;45.264;5.468;2023-02-28T07:52:45;1.60;99.90
13462;DHT22;6803;45.264;5.468;2023-02-28T07:55:16;1.50;99.90
13462;DHT22;6803;45.264;5.468;2023-02-28T07:57:47;1.60;99.90
13462;DHT22;6803;45.264;5.468;2023-02-28T08:00:20;1.40;99.90
13462;DHT22;6803;45.264;5.468;2023-02-28T08:02:51;1.40;99.90
13462;DHT22;6803;45.264;5.468;2023-02-28T08:05:22;1.50;99.90
13462;DHT22;6803;45.264;5.468;2023-02-28T08:07:53;1.60;99.90
13462;DHT22;6803;45.264;5.468;2023-02-28T08:10:24;1.80;99.90
13462;DHT22;6803;45.264;5.468;2023-02-28T08:12:55;1.80;99.90
13462;DHT22;6803;45.264;5.468;2023-02-28T08:15:26;1.70;99.90
13462;DHT22;6803;45.264;5.468;2023-02-28T08:17:57;1.70;99.90
13462;DHT22;6803;45.264;5.468;2023-02-28T08:20:28;1.80;99.90
13462;DHT22;6803;45.264;5.468;2023-02-28T08:23:00;1.70;99.90
13462;DHT22;6803;45.264;5.468;2023-02-28T08:25:31;1.80;99.90
13462;DHT22;6803;45.264;5.468;2023-02-28T08:28:02;2.00;99.90
13462;DHT22;6803;45.264;5.468;2023-02-28T08:30:33;2.10;99.90
13462;DHT22;6803;45.264;5.468;2023-02-28T08:33:04;2.10;99.90
13462;DHT22;6803;45.264;5.468;2023-02-28T08:35:37;2.20;99.90
13462;DHT22;6803;45.264;5.468;2023-02-28T08:38:08;2.20;99.90
13462;DHT22;6803;45.264;5.468;2023-02-28T08:40:39;2.30;99.90
13462;DHT22;6803;45.264;5.468;2023-02-28T08:43:10;2.50;99.90
13462;DHT22;6803;45.264;5.468;2023-02-28T08:45:41;2.70;99.90
13462;DHT22;6803;45.264;5.468;2023-02-28T08:48:12;2.70;99.90
13462;DHT22;6803;45.264;5.468;2023-02-28T08:50:53;2.70;99.90
13462;DHT22;6803;45.264;5.468;2023-02-28T08:53:19;2.70;99.90
13462;DHT22;6803;45.264;5.468;2023-02-28T08:55:58;2.70;99.90
13462;DHT22;6803;45.264;5.468;2023-02-28T08:58:29;2.70;99.90
13462;DHT22;6803;45.264;5.468;2023-02-28T09:01:00;2.70;99.90
13462;DHT22;6803;45.264;5.468;2023-02-28T09:03:31;2.60;99.90
13462;DHT22;6803;45.264;5.468;2023-02-28T09:06:03;2.50;99.90
13462;DHT22;6803;45.264;5.468;2023-02-28T09:08:35;2.50;99.90
13462;DHT22;6803;45.264;5.468;2023-02-28T09:11:07;2.40;99.90
13462;DHT22;6803;45.264;5.468;2023-02-28T09:13:38;2.30;99.90
13462;DHT22;6803;45.264;5.468;2023-02-28T09:16:11;2.50;99.90
13462;DHT22;6803;45.264;5.468;2023-02-28T09:18:43;2.50;99.90
13462;DHT22;6803;45.264;5.468;2023-02-28T09:21:16;2.50;99.90
13462;DHT22;6803;45.264;5.468;2023-02-28T09:23:48;2.70;99.90
13462;DHT22;6803;45.264;5.468;2023-02-28T09:26:22;2.80;99.90
13462;DHT22;6803;45.264;5.468;2023-02-28T09:28:54;2.80;99.90
13462;DHT22;6803;45.264;5.468;2023-02-28T09:31:27;3.00;99.90
13462;DHT22;6803;45.264;5.468;2023-02-28T09:33:58;2.90;99.90
13462;DHT22;6803;45.264;5.468;2023-02-28T09:36:30;2.90;99.90
13462;DHT22;6803;45.264;5.468;2023-02-28T09:39:04;2.90;99.90
13462;DHT22;6803;45.264;5.468;2023-02-28T09:44:21;3.20;99.90
13462;DHT22;6803;45.264;5.468;2023-02-28T09:46:56;3.40;99.90
13462;DHT22;6803;45.264;5.468;2023-02-28T09:49:33;3.50;99.90
13462;DHT22;6803;45.264;5.468;2023-02-28T09:52:09;3.40;99.90
13462;DHT22;6803;45.264;5.468;2023-02-28T09:54:40;3.70;99.90
13462;DHT22;6803;45.264;5.468;2023-02-28T09:57:19;3.90;99.90
13462;DHT22;6803;45.264;5.468;2023-02-28T09:59:59;4.00;99.90
13462;DHT22;6803;45.264;5.468;2023-02-28T10:02:54;4.10;99.90
13462;DHT22;6803;45.264;5.468;2023-02-28T10:05:30;4.00;99.90
13462;DHT22;6803;45.264;5.468;2023-02-28T10:08:07;3.90;99.90
13462;DHT22;6803;45.264;5.468;2023-02-28T10:10:42;4.00;99.90
13462;DHT22;6803;45.264;5.468;2023-02-28T10:13:17;3.90;99.90
13462;DHT22;6803;45.264;5.468;2023-02-28T10:15:53;3.90;99.90
13462;DHT22;6803;45.264;5.468;2023-02-28T10:18:27;4.00;99.90
13462;DHT22;6803;45.264;5.468;2023-02-28T10:21:00;4.10;99.90
13462;DHT22;6803;45.264;5.468;2023-02-28T10:23:34;4.10;99.90
13462;DHT22;6803;45.264;5.468;2023-02-28T10:26:09;3.80;99.90
13462;DHT22;6803;45.264;5.468;2023-02-28T10:28:42;3.70;99.90
13462;DHT22;6803;45.264;5.468;2023-02-28T10:31:15;3.70;99.90
13462;DHT22;6803;45.264;5.468;2023-02-28T10:33:48;3.90;99.90
13462;DHT22;6803;45.264;5.468;2023-02-28T10:36:21;3.90;99.90
13462;DHT22;6803;45.264;5.468;2023-02-28T10:38:52;4.00;99.90
13462;DHT22;6803;45.264;5.468;2023-02-28T10:41:31;3.90;99.90
13462;DHT22;6803;45.264;5.468;2023-02-28T10:44:20;3.80;99.90
13462;DHT22;6803;45.264;5.468;2023-02-28T10:46:51;3.70;99.90
13462;DHT22;6803;45.264;5.468;2023-02-28T10:49:24;3.90;99.90
13462;DHT22;6803;45.264;5.468;2023-02-28T10:51:58;4.00;99.90
13462;DHT22;6803;45.264;5.468;2023-02-28T10:54:32;3.70;99.90
13462;DHT22;6803;45.264;5.468;2023-02-28T10:57:14;3.80;99.90
13462;DHT22;6803;45.264;5.468;2023-02-28T11:00:07;3.90;99.90
13462;DHT22;6803;45.264;5.468;2023-02-28T11:02:38;4.00;99.90
13462;DHT22;6803;45.264;5.468;2023-02-28T11:05:29;4.10;99.90
13462;DHT22;6803;45.264;5.468;2023-02-28T11:08:04;3.60;99.90
13462;DHT22;6803;45.264;5.468;2023-02-28T11:10:37;3.30;99.90
13462;DHT22;6803;45.264;5.468;2023-02-28T11:13:13;3.70;99.90
13462;DHT22;6803;45.264;5.468;2023-02-28T11:15:42;3.90;99.90
13462;DHT22;6803;45.264;5.468;2023-02-28T11:18:26;3.70;99.90
13462;DHT22;6803;45.264;5.468;2023-02-28T11:23:39;4.00;99.90
13462;DHT22;6803;45.264;5.468;2023-02-28T11:26:11;4.00;99.90
13462;DHT22;6803;45.264;5.468;2023-02-28T11:28:42;4.30;99.90
13462;DHT22;6803;45.264;5.468;2023-02-28T11:31:19;3.90;99.90
13462;DHT22;6803;45.264;5.468;2023-02-28T11:33:53;4.10;99.90
13462;DHT22;6803;45.264;5.468;2023-02-28T11:36:27;4.60;99.90
13462;DHT22;6803;45.264;5.468;2023-02-28T11:39:01;4.70;99.90
13462;DHT22;6803;45.264;5.468;2023-02-28T11:41:47;4.80;99.90
13462;DHT22;6803;45.264;5.468;2023-02-28T11:44:26;4.80;99.90
13462;DHT22;6803;45.264;5.468;2023-02-28T11:46:59;4.80;99.90
13462;DHT22;6803;45.264;5.468;2023-02-28T11:49:35;4.90;99.90
13462;DHT22;6803;45.264;5.468;2023-02-28T11:52:14;4.50;99.90
13462;DHT22;6803;45.264;5.468;2023-02-28T11:58:11;4.20;99.90
13462;DHT22;6803;45.264;5.468;2023-02-28T12:00:48;4.50;99.90
13462;DHT22;6803;45.264;5.468;2023-02-28T12:03:24;4.70;99.90
13462;DHT22;6803;45.264;5.468;2023-02-28T12:06:01;4.70;99.90
13462;DHT22;6803;45.264;5.468;2023-02-28T12:11:27;4.70;99.90
13462;DHT22;6803;45.264;5.468;2023-02-28T12:14:06;4.60;99.90
13462;DHT22;6803;45.264;5.468;2023-02-28T12:16:47;4.60;99.90
13462;DHT22;6803;45.264;5.468;2023-02-28T12:19:23;4.80;99.90
13462;DHT22;6803;45.264;5.468;2023-02-28T12:22:09;4.80;99.90
13462;DHT22;6803;45.264;5.468;2023-02-28T12:24:47;4.90;99.90
13462;DHT22;6803;45.264;5.468;2023-02-28T12:27:21;4.90;99.90
13462;DHT22;6803;45.264;5.468;2023-02-28T12:29:57;4.60;99.90
13462;DHT22;6803;45.264;5.468;2023-02-28T12:32:31;4.50;99.90
13462;DHT22;6803;45.264;5.468;2023-02-28T12:35:06;4.50;99.90
13462;DHT22;6803;45.264;5.468;2023-02-28T12:37:40;4.40;99.90
13462;DHT22;6803;45.264;5.468;2023-02-28T12:40:17;4.40;99.90
13462;DHT22;6803;45.264;5.468;2023-02-28T12:45:36;4.30;99.90
13462;DHT22;6803;45.264;5.468;2023-02-28T12:48:08;4.20;99.90
13462;DHT22;6803;45.264;5.468;2023-02-28T12:50:40;4.00;99.90
13462;DHT22;6803;45.264;5.468;2023-02-28T12:53:13;4.20;99.90
13462;DHT22;6803;45.264;5.468;2023-02-28T12:55:48;4.30;99.90
13462;DHT22;6803;45.264;5.468;2023-02-28T12:58:23;4.30;99.90
13462;DHT22;6803;45.264;5.468;2023-02-28T13:01:10;4.40;99.90
13462;DHT22;6803;45.264;5.468;2023-02-28T13:03:57;4.30;99.90
13462;DHT22;6803;45.264;5.468;2023-02-28T13:06:44;4.40;99.90
13462;DHT22;6803;45.264;5.468;2023-02-28T13:09:17;4.20;99.90
13462;DHT22;6803;45.264;5.468;2023-02-28T13:11:49;4.40;99.90
13462;DHT22;6803;45.264;5.468;2023-02-28T13:14:28;4.70;99.90
13462;DHT22;6803;45.264;5.468;2023-02-28T13:17:09;4.60;99.90
13462;DHT22;6803;45.264;5.468;2023-02-28T13:19:36;4.50;99.90
13462;DHT22;6803;45.264;5.468;2023-02-28T13:22:19;4.60;99.90
13462;DHT22;6803;45.264;5.468;2023-02-28T13:24:52;4.60;99.90
13462;DHT22;6803;45.264;5.468;2023-02-28T13:27:33;4.60;99.90
13462;DHT22;6803;45.264;5.468;2023-02-28T13:33:26;4.30;99.90
13462;DHT22;6803;45.264;5.468;2023-02-28T13:36:26;4.40;99.90
13462;DHT22;6803;45.264;5.468;2023-02-28T13:39:01;4.30;99.90
13462;DHT22;6803;45.264;5.468;2023-02-28T13:41:47;4.10;99.90
13462;DHT22;6803;45.264;5.468;2023-02-28T13:47:27;4.10;99.90
13462;DHT22;6803;45.264;5.468;2023-02-28T13:50:24;4.00;99.90
13462;DHT22;6803;45.264;5.468;2023-02-28T13:53:41;3.90;99.90
13462;DHT22;6803;45.264;5.468;2023-02-28T13:56:24;4.00;99.90
13462;DHT22;6803;45.264;5.468;2023-02-28T13:58:59;4.30;99.90
13462;DHT22;6803;45.264;5.468;2023-02-28T14:01:41;4.30;99.90
13462;DHT22;6803;45.264;5.468;2023-02-28T14:07:22;4.20;99.90
13462;DHT22;6803;45.264;5.468;2023-02-28T14:10:03;4.00;99.90
13462;DHT22;6803;45.264;5.468;2023-02-28T14:12:57;4.00;99.90
13462;DHT22;6803;45.264;5.468;2023-02-28T14:18:30;4.00;99.90
13462;DHT22;6803;45.264;5.468;2023-02-28T14:21:20;4.00;99.90
13462;DHT22;6803;45.264;5.468;2023-02-28T14:24:24;4.00;99.90
13462;DHT22;6803;45.264;5.468;2023-02-28T14:33:16;4.10;99.90
13462;DHT22;6803;45.264;5.468;2023-02-28T14:36:13;4.10;99.90
13462;DHT22;6803;45.264;5.468;2023-02-28T14:38:47;4.10;99.90
13462;DHT22;6803;45.264;5.468;2023-02-28T14:41:23;3.80;99.90
13462;DHT22;6803;45.264;5.468;2023-02-28T14:43:57;3.80;99.90
13462;DHT22;6803;45.264;5.468;2023-02-28T14:46:33;3.80;99.90
13462;DHT22;6803;45.264;5.468;2023-02-28T14:49:04;3.90;99.90
13462;DHT22;6803;45.264;5.468;2023-02-28T14:51:36;3.90;99.90
13462;DHT22;6803;45.264;5.468;2023-02-28T14:54:07;3.90;99.90
13462;DHT22;6803;45.264;5.468;2023-02-28T14:56:39;3.80;99.90
13462;DHT22;6803;45.264;5.468;2023-02-28T14:59:26;3.80;99.90
13462;DHT22;6803;45.264;5.468;2023-02-28T15:02:17;3.80;99.90
13462;DHT22;6803;45.264;5.468;2023-02-28T15:04:56;3.80;99.90
13462;DHT22;6803;45.264;5.468;2023-02-28T15:07:28;3.80;99.90
13462;DHT22;6803;45.264;5.468;2023-02-28T15:10:10;3.80;99.90
13462;DHT22;6803;45.264;5.468;2023-02-28T15:12:41;3.80;99.90
13462;DHT22;6803;45.264;5.468;2023-02-28T15:15:18;3.80;99.90
13462;DHT22;6803;45.264;5.468;2023-02-28T15:17:54;3.80;99.90
13462;DHT22;6803;45.264;5.468;2023-02-28T15:20:27;3.80;99.90
13462;DHT22;6803;45.264;5.468;2023-02-28T15:23:16;3.70;99.90
13462;DHT22;6803;45.264;5.468;2023-02-28T15:25:49;3.70;99.90
13462;DHT22;6803;45.264;5.468;2023-02-28T15:28:23;3.80;99.90
13462;DHT22;6803;45.264;5.468;2023-02-28T15:30:58;3.80;99.90
13462;DHT22;6803;45.264;5.468;2023-02-28T15:33:31;3.80;99.90
13462;DHT22;6803;45.264;5.468;2023-02-28T15:36:11;3.70;99.90
13462;DHT22;6803;45.264;5.468;2023-02-28T15:38:43;3.70;99.90
13462;DHT22;6803;45.264;5.468;2023-02-28T15:41:25;3.60;99.90
13462;DHT22;6803;45.264;5.468;2023-02-28T15:47:06;3.70;99.90
13462;DHT22;6803;45.264;5.468;2023-02-28T15:49:45;3.60;99.90
13462;DHT22;6803;45.264;5.468;2023-02-28T15:52:16;3.50;99.90
13462;DHT22;6803;45.264;5.468;2023-02-28T15:54:48;3.50;99.90
13462;DHT22;6803;45.264;5.468;2023-02-28T15:57:21;3.50;99.90
13462;DHT22;6803;45.264;5.468;2023-02-28T15:59:55;3.50;99.90
13462;DHT22;6803;45.264;5.468;2023-02-28T16:02:32;3.60;99.90
13462;DHT22;6803;45.264;5.468;2023-02-28T16:05:23;3.60;99.90
13462;DHT22;6803;45.264;5.468;2023-02-28T16:08:00;3.60;99.90
13462;DHT22;6803;45.264;5.468;2023-02-28T16:10:31;3.50;99.90
13462;DHT22;6803;45.264;5.468;2023-02-28T16:13:03;3.60;99.90
13462;DHT22;6803;45.264;5.468;2023-02-28T16:15:37;3.60;99.90
13462;DHT22;6803;45.264;5.468;2023-02-28T16:18:12;3.50;99.90
13462;DHT22;6803;45.264;5.468;2023-02-28T16:20:43;3.50;99.90
13462;DHT22;6803;45.264;5.468;2023-02-28T16:23:14;3.50;99.90
13462;DHT22;6803;45.264;5.468;2023-02-28T16:25:46;3.50;99.90
13462;DHT22;6803;45.264;5.468;2023-02-28T16:28:19;3.50;99.90
13462;DHT22;6803;45.264;5.468;2023-02-28T16:30:53;3.50;99.90
13462;DHT22;6803;45.264;5.468;2023-02-28T16:33:24;3.50;99.90
13462;DHT22;6803;45.264;5.468;2023-02-28T16:38:33;3.50;99.90
13462;DHT22;6803;45.264;5.468;2023-02-28T16:41:05;3.50;99.90
13462;DHT22;6803;45.264;5.468;2023-02-28T16:43:36;3.40;99.90
13462;DHT22;6803;45.264;5.468;2023-02-28T16:46:11;3.50;99.90
13462;DHT22;6803;45.264;5.468;2023-02-28T16:48:42;3.50;99.90
13462;DHT22;6803;45.264;5.468;2023-02-28T16:51:15;3.40;99.90
13462;DHT22;6803;45.264;5.468;2023-02-28T16:53:46;3.40;99.90
13462;DHT22;6803;45.264;5.468;2023-02-28T16:56:19;3.40;99.90
13462;DHT22;6803;45.264;5.468;2023-02-28T16:58:50;3.40;99.90
13462;DHT22;6803;45.264;5.468;2023-02-28T17:01:22;3.40;99.90
13462;DHT22;6803;45.264;5.468;2023-02-28T17:03:53;3.30;99.90
13462;DHT22;6803;45.264;5.468;2023-02-28T17:06:26;3.30;99.90
13462;DHT22;6803;45.264;5.468;2023-02-28T17:08:58;3.30;99.90
13462;DHT22;6803;45.264;5.468;2023-02-28T17:11:29;3.30;99.90
13462;DHT22;6803;45.264;5.468;2023-02-28T17:14:02;3.30;99.90
13462;DHT22;6803;45.264;5.468;2023-02-28T17:16:35;3.30;99.90
13462;DHT22;6803;45.264;5.468;2023-02-28T17:19:11;3.20;99.90
13462;DHT22;6803;45.264;5.468;2023-02-28T17:21:42;3.30;99.90
13462;DHT22;6803;45.264;5.468;2023-02-28T17:24:14;3.20;99.90
13462;DHT22;6803;45.264;5.468;2023-02-28T17:26:46;3.20;99.90
13462;DHT22;6803;45.264;5.468;2023-02-28T17:29:19;3.20;99.90
13462;DHT22;6803;45.264;5.468;2023-02-28T17:31:51;3.20;99.90
13462;DHT22;6803;45.264;5.468;2023-02-28T17:34:23;3.20;99.90
13462;DHT22;6803;45.264;5.468;2023-02-28T17:39:35;3.20;99.90